sensor_id;sensor_type;location;lat;lon;timestamp;P1;durP1;ratioP1;P2;durP2;ratioP2
48042;SDS011;33988;47.992;8.820;2022-09-14T00:01:42;2.03;;;1.38;;
48042;SDS011;33988;47.992;8.820;2022-09-14T00:04:16;1.40;;;1.20;;
48042;SDS011;33988;47.992;8.820;2022-09-14T00:09:19;3.80;;;1.33;;
48042;SDS011;33988;47.992;8.820;2022-09-14T00:11:50;1.25;;;1.15;;
48042;SDS011;33988;47.992;8.820;2022-09-14T00:14:18;3.28;;;1.77;;
48042;SDS011;33988;47.992;8.820;2022-09-14T00:16:45;1.48;;;1.30;;
48042;SDS011;33988;47.992;8.820;2022-09-14T00:19:20;1.38;;;1.25;;
48042;SDS011;33988;47.992;8.820;2022-09-14T00:21:54;1.30;;;1.20;;
48042;SDS011;33988;47.992;8.820;2022-09-14T00:24:23;2.22;;;1.38;;
48042;SDS011;33988;47.992;8.820;2022-09-14T00:26:52;3.47;;;1.30;;
48042;SDS011;33988;47.992;8.820;2022-09-14T00:29:19;1.88;;;1.50;;
48042;SDS011;33988;47.992;8.820;2022-09-14T00:31:48;3.08;;;1.27;;
48042;SDS011;33988;47.992;8.820;2022-09-14T00:34:16;1.92;;;1.60;;
48042;SDS011;33988;47.992;8.820;2022-09-14T00:36:44;1.40;;;0.95;;
48042;SDS011;33988;47.992;8.820;2022-09-14T00:39:15;1.40;;;1.23;;
48042;SDS011;33988;47.992;8.820;2022-09-14T00:41:44;1.23;;;1.10;;
48042;SDS011;33988;47.992;8.820;2022-09-14T00:46:45;1.20;;;1.10;;
48042;SDS011;33988;47.992;8.820;2022-09-14T00:51:48;1.70;;;1.40;;
48042;SDS011;33988;47.992;8.820;2022-09-14T00:54:35;1.73;;;1.30;;
48042;SDS011;33988;47.992;8.820;2022-09-14T00:57:26;1.65;;;1.27;;
48042;SDS011;33988;47.992;8.820;2022-09-14T00:59:58;1.40;;;1.13;;
48042;SDS011;33988;47.992;8.820;2022-09-14T01:02:32;1.42;;;1.33;;
48042;SDS011;33988;47.992;8.820;2022-09-14T01:04:59;1.80;;;1.20;;
48042;SDS011;33988;47.992;8.820;2022-09-14T01:18:44;1.45;;;1.27;;
48042;SDS011;33988;47.992;8.820;2022-09-14T01:21:36;3.55;;;1.27;;
48042;SDS011;33988;47.992;8.820;2022-09-14T01:27:11;1.40;;;1.30;;
48042;SDS011;33988;47.992;8.820;2022-09-14T01:30:10;1.50;;;1.40;;
48042;SDS011;33988;47.992;8.820;2022-09-14T01:35:26;1.30;;;1.20;;
48042;SDS011;33988;47.992;8.820;2022-09-14T01:38:03;2.70;;;1.33;;
48042;SDS011;33988;47.992;8.820;2022-09-14T01:40:52;2.10;;;1.40;;
48042;SDS011;33988;47.992;8.820;2022-09-14T01:43:26;1.80;;;1.00;;
48042;SDS011;33988;47.992;8.820;2022-09-14T01:46:03;1.58;;;1.38;;
48042;SDS011;33988;47.992;8.820;2022-09-14T01:51:18;2.88;;;1.27;;
48042;SDS011;33988;47.992;8.820;2022-09-14T01:53:54;1.27;;;1.17;;
48042;SDS011;33988;47.992;8.820;2022-09-14T01:56:37;3.17;;;1.58;;
48042;SDS011;33988;47.992;8.820;2022-09-14T01:59:13;2.15;;;1.50;;
48042;SDS011;33988;47.992;8.820;2022-09-14T02:04:51;1.65;;;1.30;;
48042;SDS011;33988;47.992;8.820;2022-09-14T02:07:31;1.23;;;0.95;;
48042;SDS011;33988;47.992;8.820;2022-09-14T02:10:01;1.48;;;1.38;;
48042;SDS011;33988;47.992;8.820;2022-09-14T02:12:34;1.38;;;1.27;;
48042;SDS011;33988;47.992;8.820;2022-09-14T02:15:02;1.70;;;1.38;;
48042;SDS011;33988;47.992;8.820;2022-09-14T02:17:30;2.05;;;1.23;;
48042;SDS011;33988;47.992;8.820;2022-09-14T02:19:58;1.42;;;1.33;;
48042;SDS011;33988;47.992;8.820;2022-09-14T02:22:29;1.83;;;1.42;;
48042;SDS011;33988;47.992;8.820;2022-09-14T02:24:56;1.40;;;1.30;;
48042;SDS011;33988;47.992;8.820;2022-09-14T02:27:29;1.65;;;1.10;;
48042;SDS011;33988;47.992;8.820;2022-09-14T02:30:00;1.20;;;1.10;;
48042;SDS011;33988;47.992;8.820;2022-09-14T02:32:45;3.78;;;1.50;;
48042;SDS011;33988;47.992;8.820;2022-09-14T02:40:35;1.75;;;1.33;;
48042;SDS011;33988;47.992;8.820;2022-09-14T02:46:51;1.40;;;1.17;;
48042;SDS011;33988;47.992;8.820;2022-09-14T02:52:12;1.00;;;1.00;;
48042;SDS011;33988;47.992;8.820;2022-09-14T02:57:19;2.28;;;1.33;;
48042;SDS011;33988;47.992;8.820;2022-09-14T02:59:46;3.75;;;1.70;;
48042;SDS011;33988;47.992;8.820;2022-09-14T03:02:13;1.98;;;1.40;;
48042;SDS011;33988;47.992;8.820;2022-09-14T03:04:45;1.48;;;1.38;;
48042;SDS011;33988;47.992;8.820;2022-09-14T03:07:14;3.10;;;1.70;;
48042;SDS011;33988;47.992;8.820;2022-09-14T03:09:41;2.88;;;1.13;;
48042;SDS011;33988;47.992;8.820;2022-09-14T03:12:08;1.40;;;1.30;;
48042;SDS011;33988;47.992;8.820;2022-09-14T03:14:35;2.10;;;1.10;;
48042;SDS011;33988;47.992;8.820;2022-09-14T03:17:05;2.10;;;1.52;;
48042;SDS011;33988;47.992;8.820;2022-09-14T03:19:32;1.40;;;1.30;;
48042;SDS011;33988;47.992;8.820;2022-09-14T03:22:01;2.20;;;1.55;;
48042;SDS011;33988;47.992;8.820;2022-09-14T03:24:28;1.70;;;1.30;;
48042;SDS011;33988;47.992;8.820;2022-09-14T03:26:57;3.15;;;1.50;;
48042;SDS011;33988;47.992;8.820;2022-09-14T03:29:27;1.30;;;1.20;;
48042;SDS011;33988;47.992;8.820;2022-09-14T03:31:56;1.85;;;1.25;;
48042;SDS011;33988;47.992;8.820;2022-09-14T03:34:25;2.30;;;1.80;;
48042;SDS011;33988;47.992;8.820;2022-09-14T03:39:23;2.03;;;1.60;;
48042;SDS011;33988;47.992;8.820;2022-09-14T03:41:50;1.48;;;1.30;;
48042;SDS011;33988;47.992;8.820;2022-09-14T03:44:17;1.30;;;1.20;;
48042;SDS011;33988;47.992;8.820;2022-09-14T03:46:44;2.28;;;1.40;;
48042;SDS011;33988;47.992;8.820;2022-09-14T03:49:11;2.03;;;1.02;;
48042;SDS011;33988;47.992;8.820;2022-09-14T03:51:40;1.55;;;1.40;;
48042;SDS011;33988;47.992;8.820;2022-09-14T03:54:09;1.63;;;1.38;;
48042;SDS011;33988;47.992;8.820;2022-09-14T03:56:38;1.65;;;1.30;;
48042;SDS011;33988;47.992;8.820;2022-09-14T03:59:08;1.23;;;1.13;;
48042;SDS011;33988;47.992;8.820;2022-09-14T04:01:35;2.38;;;1.70;;
48042;SDS011;33988;47.992;8.820;2022-09-14T04:04:03;2.00;;;1.83;;
48042;SDS011;33988;47.992;8.820;2022-09-14T04:06:33;1.80;;;1.70;;
48042;SDS011;33988;47.992;8.820;2022-09-14T04:09:05;1.95;;;1.75;;
48042;SDS011;33988;47.992;8.820;2022-09-14T04:11:31;1.75;;;1.65;;
48042;SDS011;33988;47.992;8.820;2022-09-14T04:14:02;2.55;;;1.75;;
48042;SDS011;33988;47.992;8.820;2022-09-14T04:16:30;1.80;;;1.27;;
48042;SDS011;33988;47.992;8.820;2022-09-14T04:18:59;1.50;;;1.40;;
48042;SDS011;33988;47.992;8.820;2022-09-14T04:21:28;2.00;;;1.60;;
48042;SDS011;33988;47.992;8.820;2022-09-14T04:23:56;2.15;;;1.75;;
48042;SDS011;33988;47.992;8.820;2022-09-14T04:26:40;2.17;;;1.98;;
48042;SDS011;33988;47.992;8.820;2022-09-14T04:29:08;2.53;;;2.13;;
48042;SDS011;33988;47.992;8.820;2022-09-14T04:31:38;1.77;;;1.42;;
48042;SDS011;33988;47.992;8.820;2022-09-14T04:34:06;1.30;;;1.23;;
48042;SDS011;33988;47.992;8.820;2022-09-14T04:36:36;2.33;;;1.58;;
48042;SDS011;33988;47.992;8.820;2022-09-14T04:39:03;2.58;;;1.90;;
48042;SDS011;33988;47.992;8.820;2022-09-14T04:41:30;1.70;;;1.50;;
48042;SDS011;33988;47.992;8.820;2022-09-14T04:43:59;1.83;;;1.73;;
48042;SDS011;33988;47.992;8.820;2022-09-14T04:46:28;1.67;;;1.58;;
48042;SDS011;33988;47.992;8.820;2022-09-14T04:48:57;2.20;;;2.03;;
48042;SDS011;33988;47.992;8.820;2022-09-14T04:51:25;2.08;;;1.85;;
48042;SDS011;33988;47.992;8.820;2022-09-14T04:53:56;3.63;;;1.85;;
48042;SDS011;33988;47.992;8.820;2022-09-14T04:56:25;2.22;;;1.98;;
48042;SDS011;33988;47.992;8.820;2022-09-14T04:58:55;2.03;;;1.75;;
48042;SDS011;33988;47.992;8.820;2022-09-14T05:01:28;2.10;;;1.65;;
48042;SDS011;33988;47.992;8.820;2022-09-14T05:04:05;1.60;;;1.42;;
48042;SDS011;33988;47.992;8.820;2022-09-14T05:06:34;1.35;;;1.25;;
48042;SDS011;33988;47.992;8.820;2022-09-14T05:09:04;3.33;;;1.57;;
48042;SDS011;33988;47.992;8.820;2022-09-14T05:11:38;2.13;;;1.95;;
48042;SDS011;33988;47.992;8.820;2022-09-14T05:14:06;2.63;;;1.65;;
48042;SDS011;33988;47.992;8.820;2022-09-14T05:16:37;3.05;;;2.10;;
48042;SDS011;33988;47.992;8.820;2022-09-14T05:19:07;2.60;;;1.83;;
48042;SDS011;33988;47.992;8.820;2022-09-14T05:21:40;1.63;;;1.52;;
48042;SDS011;33988;47.992;8.820;2022-09-14T05:24:11;3.30;;;1.88;;
48042;SDS011;33988;47.992;8.820;2022-09-14T05:26:41;1.92;;;1.67;;
48042;SDS011;33988;47.992;8.820;2022-09-14T05:29:13;1.92;;;1.75;;
48042;SDS011;33988;47.992;8.820;2022-09-14T05:31:44;3.45;;;2.03;;
48042;SDS011;33988;47.992;8.820;2022-09-14T05:34:11;2.33;;;1.83;;
48042;SDS011;33988;47.992;8.820;2022-09-14T05:36:39;3.90;;;2.10;;
48042;SDS011;33988;47.992;8.820;2022-09-14T05:39:07;2.35;;;1.75;;
48042;SDS011;33988;47.992;8.820;2022-09-14T05:41:37;2.10;;;2.00;;
48042;SDS011;33988;47.992;8.820;2022-09-14T05:44:04;2.42;;;1.80;;
48042;SDS011;33988;47.992;8.820;2022-09-14T05:46:33;2.58;;;2.03;;
48042;SDS011;33988;47.992;8.820;2022-09-14T05:49:01;1.80;;;1.70;;
48042;SDS011;33988;47.992;8.820;2022-09-14T05:51:28;2.28;;;1.90;;
48042;SDS011;33988;47.992;8.820;2022-09-14T05:53:58;2.08;;;1.67;;
48042;SDS011;33988;47.992;8.820;2022-09-14T05:56:27;2.50;;;2.30;;
48042;SDS011;33988;47.992;8.820;2022-09-14T05:58:55;2.22;;;2.03;;
48042;SDS011;33988;47.992;8.820;2022-09-14T06:01:26;3.15;;;2.40;;
48042;SDS011;33988;47.992;8.820;2022-09-14T06:03:56;2.70;;;1.83;;
48042;SDS011;33988;47.992;8.820;2022-09-14T06:06:30;4.20;;;2.03;;
48042;SDS011;33988;47.992;8.820;2022-09-14T06:08:58;1.90;;;1.70;;
48042;SDS011;33988;47.992;8.820;2022-09-14T06:11:27;1.92;;;1.70;;
48042;SDS011;33988;47.992;8.820;2022-09-14T06:13:56;2.65;;;2.42;;
48042;SDS011;33988;47.992;8.820;2022-09-14T06:16:24;5.25;;;2.30;;
48042;SDS011;33988;47.992;8.820;2022-09-14T06:18:58;3.75;;;1.90;;
48042;SDS011;33988;47.992;8.820;2022-09-14T06:21:29;2.08;;;1.80;;
48042;SDS011;33988;47.992;8.820;2022-09-14T06:24:02;1.83;;;1.73;;
48042;SDS011;33988;47.992;8.820;2022-09-14T06:26:29;2.30;;;2.10;;
48042;SDS011;33988;47.992;8.820;2022-09-14T06:28:57;2.95;;;2.17;;
48042;SDS011;33988;47.992;8.820;2022-09-14T06:31:23;2.10;;;1.88;;
48042;SDS011;33988;47.992;8.820;2022-09-14T06:33:51;2.95;;;2.38;;
48042;SDS011;33988;47.992;8.820;2022-09-14T06:36:20;3.28;;;2.08;;
48042;SDS011;33988;47.992;8.820;2022-09-14T06:38:54;4.30;;;2.30;;
48042;SDS011;33988;47.992;8.820;2022-09-14T06:41:25;2.78;;;2.42;;
48042;SDS011;33988;47.992;8.820;2022-09-14T06:43:58;2.13;;;1.83;;
48042;SDS011;33988;47.992;8.820;2022-09-14T06:46:31;3.28;;;2.15;;
48042;SDS011;33988;47.992;8.820;2022-09-14T06:49:04;5.05;;;2.50;;
48042;SDS011;33988;47.992;8.820;2022-09-14T06:51:48;3.00;;;2.08;;
48042;SDS011;33988;47.992;8.820;2022-09-14T06:54:16;2.92;;;2.03;;
48042;SDS011;33988;47.992;8.820;2022-09-14T06:56:46;2.45;;;1.67;;
48042;SDS011;33988;47.992;8.820;2022-09-14T06:59:14;2.58;;;1.70;;
48042;SDS011;33988;47.992;8.820;2022-09-14T07:01:44;1.90;;;1.75;;
48042;SDS011;33988;47.992;8.820;2022-09-14T07:04:12;2.97;;;2.08;;
48042;SDS011;33988;47.992;8.820;2022-09-14T07:06:42;1.63;;;1.42;;
48042;SDS011;33988;47.992;8.820;2022-09-14T07:09:09;2.50;;;1.90;;
48042;SDS011;33988;47.992;8.820;2022-09-14T07:11:37;3.28;;;2.15;;
48042;SDS011;33988;47.992;8.820;2022-09-14T07:14:07;3.03;;;2.15;;
48042;SDS011;33988;47.992;8.820;2022-09-14T07:16:37;2.92;;;2.00;;
48042;SDS011;33988;47.992;8.820;2022-09-14T07:19:06;2.10;;;2.00;;
48042;SDS011;33988;47.992;8.820;2022-09-14T07:21:38;2.30;;;2.10;;
48042;SDS011;33988;47.992;8.820;2022-09-14T07:24:11;1.95;;;1.73;;
48042;SDS011;33988;47.992;8.820;2022-09-14T07:26:40;2.25;;;2.05;;
48042;SDS011;33988;47.992;8.820;2022-09-14T07:29:12;3.53;;;2.20;;
48042;SDS011;33988;47.992;8.820;2022-09-14T07:31:49;2.30;;;1.90;;
48042;SDS011;33988;47.992;8.820;2022-09-14T07:34:19;5.15;;;2.45;;
48042;SDS011;33988;47.992;8.820;2022-09-14T07:36:46;7.97;;;3.00;;
48042;SDS011;33988;47.992;8.820;2022-09-14T07:39:14;5.75;;;2.50;;
48042;SDS011;33988;47.992;8.820;2022-09-14T07:41:42;3.53;;;2.25;;
48042;SDS011;33988;47.992;8.820;2022-09-14T07:44:12;2.55;;;2.10;;
48042;SDS011;33988;47.992;8.820;2022-09-14T07:46:44;4.53;;;2.35;;
48042;SDS011;33988;47.992;8.820;2022-09-14T07:49:13;5.05;;;2.30;;
48042;SDS011;33988;47.992;8.820;2022-09-14T07:51:41;4.60;;;2.40;;
48042;SDS011;33988;47.992;8.820;2022-09-14T07:54:09;4.18;;;2.78;;
48042;SDS011;33988;47.992;8.820;2022-09-14T07:56:38;2.45;;;2.17;;
48042;SDS011;33988;47.992;8.820;2022-09-14T07:59:05;2.95;;;2.00;;
48042;SDS011;33988;47.992;8.820;2022-09-14T08:01:53;2.78;;;2.08;;
48042;SDS011;33988;47.992;8.820;2022-09-14T08:04:24;3.63;;;1.80;;
48042;SDS011;33988;47.992;8.820;2022-09-14T08:06:51;2.50;;;2.03;;
48042;SDS011;33988;47.992;8.820;2022-09-14T08:09:18;2.95;;;1.85;;
48042;SDS011;33988;47.992;8.820;2022-09-14T08:11:45;3.80;;;2.00;;
48042;SDS011;33988;47.992;8.820;2022-09-14T08:14:14;3.20;;;1.98;;
48042;SDS011;33988;47.992;8.820;2022-09-14T08:16:41;2.15;;;1.77;;
48042;SDS011;33988;47.992;8.820;2022-09-14T08:19:12;2.38;;;1.70;;
48042;SDS011;33988;47.992;8.820;2022-09-14T08:21:46;1.88;;;1.52;;
48042;SDS011;33988;47.992;8.820;2022-09-14T08:24:17;1.70;;;1.42;;
48042;SDS011;33988;47.992;8.820;2022-09-14T08:26:46;3.08;;;1.60;;
48042;SDS011;33988;47.992;8.820;2022-09-14T08:29:17;1.80;;;1.38;;
48042;SDS011;33988;47.992;8.820;2022-09-14T08:31:47;1.40;;;1.20;;
48042;SDS011;33988;47.992;8.820;2022-09-14T08:34:17;5.20;;;1.30;;
48042;SDS011;33988;47.992;8.820;2022-09-14T08:36:47;3.27;;;1.27;;
48042;SDS011;33988;47.992;8.820;2022-09-14T08:39:16;1.95;;;1.38;;
48042;SDS011;33988;47.992;8.820;2022-09-14T08:44:23;2.72;;;1.30;;
48042;SDS011;33988;47.992;8.820;2022-09-14T08:52:46;3.72;;;1.20;;
48042;SDS011;33988;47.992;8.820;2022-09-14T09:01:33;1.42;;;1.00;;
48042;SDS011;33988;47.992;8.820;2022-09-14T09:04:11;1.90;;;1.45;;
48042;SDS011;33988;47.992;8.820;2022-09-14T09:07:13;2.13;;;1.30;;
48042;SDS011;33988;47.992;8.820;2022-09-14T09:09:48;1.42;;;1.08;;
48042;SDS011;33988;47.992;8.820;2022-09-14T09:14:56;3.33;;;1.27;;
48042;SDS011;33988;47.992;8.820;2022-09-14T09:17:47;1.42;;;1.30;;
48042;SDS011;33988;47.992;8.820;2022-09-14T09:20:21;1.33;;;1.17;;
48042;SDS011;33988;47.992;8.820;2022-09-14T09:28:22;2.88;;;1.20;;
48042;SDS011;33988;47.992;8.820;2022-09-14T09:30:51;1.98;;;1.45;;
48042;SDS011;33988;47.992;8.820;2022-09-14T09:33:23;3.30;;;1.38;;
48042;SDS011;33988;47.992;8.820;2022-09-14T09:35:55;1.30;;;1.20;;
48042;SDS011;33988;47.992;8.820;2022-09-14T09:38:24;3.72;;;1.70;;
48042;SDS011;33988;47.992;8.820;2022-09-14T09:40:58;3.80;;;1.50;;
48042;SDS011;33988;47.992;8.820;2022-09-14T09:46:26;1.73;;;1.27;;
48042;SDS011;33988;47.992;8.820;2022-09-14T09:52:10;3.03;;;1.52;;
48042;SDS011;33988;47.992;8.820;2022-09-14T09:54:41;1.83;;;1.15;;
48042;SDS011;33988;47.992;8.820;2022-09-14T10:02:41;1.63;;;1.38;;
48042;SDS011;33988;47.992;8.820;2022-09-14T10:07:36;3.65;;;1.45;;
48042;SDS011;33988;47.992;8.820;2022-09-14T10:10:16;4.88;;;2.13;;
48042;SDS011;33988;47.992;8.820;2022-09-14T10:13:20;1.63;;;1.40;;
48042;SDS011;33988;47.992;8.820;2022-09-14T10:16:10;1.52;;;1.42;;
48042;SDS011;33988;47.992;8.820;2022-09-14T10:18:46;3.28;;;1.70;;
48042;SDS011;33988;47.992;8.820;2022-09-14T10:21:16;2.15;;;1.30;;
48042;SDS011;33988;47.992;8.820;2022-09-14T10:23:45;3.13;;;1.67;;
48042;SDS011;33988;47.992;8.820;2022-09-14T10:26:33;2.13;;;1.48;;
48042;SDS011;33988;47.992;8.820;2022-09-14T10:29:15;1.73;;;1.30;;
48042;SDS011;33988;47.992;8.820;2022-09-14T10:32:25;2.22;;;1.30;;
48042;SDS011;33988;47.992;8.820;2022-09-14T10:34:58;3.05;;;1.50;;
48042;SDS011;33988;47.992;8.820;2022-09-14T10:37:32;4.30;;;1.50;;
48042;SDS011;33988;47.992;8.820;2022-09-14T10:40:17;3.45;;;1.33;;
48042;SDS011;33988;47.992;8.820;2022-09-14T10:45:38;1.67;;;1.25;;
48042;SDS011;33988;47.992;8.820;2022-09-14T10:54:24;3.03;;;1.30;;
48042;SDS011;33988;47.992;8.820;2022-09-14T11:00:20;2.67;;;1.17;;
48042;SDS011;33988;47.992;8.820;2022-09-14T11:05:37;2.78;;;1.25;;
48042;SDS011;33988;47.992;8.820;2022-09-14T11:14:21;3.85;;;1.48;;
48042;SDS011;33988;47.992;8.820;2022-09-14T11:20:48;1.75;;;1.27;;
48042;SDS011;33988;47.992;8.820;2022-09-14T11:23:42;1.95;;;1.42;;
48042;SDS011;33988;47.992;8.820;2022-09-14T11:26:25;3.00;;;1.33;;
48042;SDS011;33988;47.992;8.820;2022-09-14T11:31:59;1.20;;;1.10;;
48042;SDS011;33988;47.992;8.820;2022-09-14T11:34:52;2.15;;;1.13;;
48042;SDS011;33988;47.992;8.820;2022-09-14T11:37:48;3.63;;;1.27;;
48042;SDS011;33988;47.992;8.820;2022-09-14T11:43:29;1.98;;;1.42;;
48042;SDS011;33988;47.992;8.820;2022-09-14T11:46:13;2.22;;;1.50;;
48042;SDS011;33988;47.992;8.820;2022-09-14T11:48:58;1.63;;;1.50;;
48042;SDS011;33988;47.992;8.820;2022-09-14T11:51:47;2.60;;;1.75;;
48042;SDS011;33988;47.992;8.820;2022-09-14T11:54:23;3.10;;;1.73;;
48042;SDS011;33988;47.992;8.820;2022-09-14T11:56:51;2.95;;;1.27;;
48042;SDS011;33988;47.992;8.820;2022-09-14T12:05:25;2.25;;;1.27;;
48042;SDS011;33988;47.992;8.820;2022-09-14T12:07:58;2.83;;;1.20;;
48042;SDS011;33988;47.992;8.820;2022-09-14T12:10:31;2.47;;;1.17;;
48042;SDS011;33988;47.992;8.820;2022-09-14T12:14:21;2.85;;;1.10;;
48042;SDS011;33988;47.992;8.820;2022-09-14T12:25:38;1.50;;;1.00;;
48042;SDS011;33988;47.992;8.820;2022-09-14T12:31:07;1.80;;;1.10;;
48042;SDS011;33988;47.992;8.820;2022-09-14T12:36:11;2.33;;;1.40;;
48042;SDS011;33988;47.992;8.820;2022-09-14T12:57:14;1.67;;;1.05;;
48042;SDS011;33988;47.992;8.820;2022-09-14T13:05:46;1.80;;;1.17;;
48042;SDS011;33988;47.992;8.820;2022-09-14T13:08:16;4.32;;;1.30;;
48042;SDS011;33988;47.992;8.820;2022-09-14T13:10:50;1.70;;;1.10;;
48042;SDS011;33988;47.992;8.820;2022-09-14T13:13:21;1.88;;;1.40;;
48042;SDS011;33988;47.992;8.820;2022-09-14T13:15:59;2.83;;;1.27;;
48042;SDS011;33988;47.992;8.820;2022-09-14T13:18:32;1.85;;;1.10;;
48042;SDS011;33988;47.992;8.820;2022-09-14T13:21:03;3.17;;;1.17;;
48042;SDS011;33988;47.992;8.820;2022-09-14T13:23:47;1.67;;;1.02;;
48042;SDS011;33988;47.992;8.820;2022-09-14T13:26:16;2.60;;;1.20;;
48042;SDS011;33988;47.992;8.820;2022-09-14T13:28:58;4.00;;;1.00;;
48042;SDS011;33988;47.992;8.820;2022-09-14T13:31:30;2.42;;;1.10;;
48042;SDS011;33988;47.992;8.820;2022-09-14T13:36:32;3.25;;;1.08;;
48042;SDS011;33988;47.992;8.820;2022-09-14T13:39:07;2.67;;;1.13;;
48042;SDS011;33988;47.992;8.820;2022-09-14T13:41:48;3.95;;;1.00;;
48042;SDS011;33988;47.992;8.820;2022-09-14T13:44:15;2.47;;;1.30;;
48042;SDS011;33988;47.992;8.820;2022-09-14T13:46:48;2.20;;;1.00;;
48042;SDS011;33988;47.992;8.820;2022-09-14T13:49:18;2.00;;;1.20;;
48042;SDS011;33988;47.992;8.820;2022-09-14T13:51:46;2.45;;;0.93;;
48042;SDS011;33988;47.992;8.820;2022-09-14T14:02:42;3.70;;;1.20;;
48042;SDS011;33988;47.992;8.820;2022-09-14T14:05:22;1.95;;;1.20;;
48042;SDS011;33988;47.992;8.820;2022-09-14T14:07:56;2.72;;;1.40;;
48042;SDS011;33988;47.992;8.820;2022-09-14T14:10:36;1.77;;;1.42;;
48042;SDS011;33988;47.992;8.820;2022-09-14T14:13:11;2.15;;;1.10;;
48042;SDS011;33988;47.992;8.820;2022-09-14T14:15:52;3.65;;;1.08;;
48042;SDS011;33988;47.992;8.820;2022-09-14T14:21:04;3.70;;;1.13;;
48042;SDS011;33988;47.992;8.820;2022-09-14T14:26:52;1.42;;;1.08;;
48042;SDS011;33988;47.992;8.820;2022-09-14T14:29:22;2.22;;;1.17;;
48042;SDS011;33988;47.992;8.820;2022-09-14T14:31:52;1.33;;;0.90;;
48042;SDS011;33988;47.992;8.820;2022-09-14T14:34:28;2.63;;;1.10;;
48042;SDS011;33988;47.992;8.820;2022-09-14T14:36:58;3.78;;;1.20;;
48042;SDS011;33988;47.992;8.820;2022-09-14T14:39:27;1.45;;;1.17;;
48042;SDS011;33988;47.992;8.820;2022-09-14T14:41:54;1.52;;;0.85;;
48042;SDS011;33988;47.992;8.820;2022-09-14T14:44:24;1.30;;;0.80;;
48042;SDS011;33988;47.992;8.820;2022-09-14T14:46:54;1.00;;;0.80;;
48042;SDS011;33988;47.992;8.820;2022-09-14T14:49:24;1.80;;;0.77;;
48042;SDS011;33988;47.992;8.820;2022-09-14T14:51:54;0.57;;;0.57;;
48042;SDS011;33988;47.992;8.820;2022-09-14T14:54:21;2.28;;;0.75;;
48042;SDS011;33988;47.992;8.820;2022-09-14T14:56:50;0.77;;;0.55;;
48042;SDS011;33988;47.992;8.820;2022-09-14T15:01:46;1.38;;;0.90;;
48042;SDS011;33988;47.992;8.820;2022-09-14T15:04:14;1.10;;;0.60;;
48042;SDS011;33988;47.992;8.820;2022-09-14T15:06:41;1.30;;;0.73;;
48042;SDS011;33988;47.992;8.820;2022-09-14T15:09:13;0.63;;;0.63;;
48042;SDS011;33988;47.992;8.820;2022-09-14T15:11:52;1.45;;;0.50;;
48042;SDS011;33988;47.992;8.820;2022-09-14T15:14:22;0.95;;;0.70;;
48042;SDS011;33988;47.992;8.820;2022-09-14T15:16:55;0.38;;;0.38;;
48042;SDS011;33988;47.992;8.820;2022-09-14T15:19:25;1.90;;;0.65;;
48042;SDS011;33988;47.992;8.820;2022-09-14T15:21:52;0.75;;;0.55;;
48042;SDS011;33988;47.992;8.820;2022-09-14T15:24:27;0.50;;;0.50;;
48042;SDS011;33988;47.992;8.820;2022-09-14T15:26:54;0.50;;;0.50;;
48042;SDS011;33988;47.992;8.820;2022-09-14T15:29:21;0.50;;;0.50;;
48042;SDS011;33988;47.992;8.820;2022-09-14T15:31:48;1.45;;;0.60;;
48042;SDS011;33988;47.992;8.820;2022-09-14T15:34:17;1.27;;;0.65;;
48042;SDS011;33988;47.992;8.820;2022-09-14T15:36:46;2.40;;;0.70;;
48042;SDS011;33988;47.992;8.820;2022-09-14T15:39:24;0.93;;;0.70;;
48042;SDS011;33988;47.992;8.820;2022-09-14T15:41:54;1.30;;;0.77;;
48042;SDS011;33988;47.992;8.820;2022-09-14T15:44:22;1.00;;;0.55;;
48042;SDS011;33988;47.992;8.820;2022-09-14T15:46:49;1.58;;;0.70;;
48042;SDS011;33988;47.992;8.820;2022-09-14T15:49:23;0.65;;;0.50;;
48042;SDS011;33988;47.992;8.820;2022-09-14T15:51:52;1.77;;;0.60;;
48042;SDS011;33988;47.992;8.820;2022-09-14T15:54:21;1.25;;;0.70;;
48042;SDS011;33988;47.992;8.820;2022-09-14T15:56:55;0.88;;;0.75;;
48042;SDS011;33988;47.992;8.820;2022-09-14T15:59:28;1.02;;;0.77;;
48042;SDS011;33988;47.992;8.820;2022-09-14T16:01:55;0.95;;;0.60;;
48042;SDS011;33988;47.992;8.820;2022-09-14T16:04:24;0.77;;;0.45;;
48042;SDS011;33988;47.992;8.820;2022-09-14T16:06:52;1.05;;;0.70;;
48042;SDS011;33988;47.992;8.820;2022-09-14T16:09:19;0.88;;;0.60;;
48042;SDS011;33988;47.992;8.820;2022-09-14T16:11:47;1.33;;;0.35;;
48042;SDS011;33988;47.992;8.820;2022-09-14T16:14:15;2.05;;;0.68;;
48042;SDS011;33988;47.992;8.820;2022-09-14T16:16:44;1.15;;;0.75;;
48042;SDS011;33988;47.992;8.820;2022-09-14T16:19:12;0.80;;;0.57;;
48042;SDS011;33988;47.992;8.820;2022-09-14T16:21:41;1.98;;;0.50;;
48042;SDS011;33988;47.992;8.820;2022-09-14T16:24:10;0.75;;;0.50;;
48042;SDS011;33988;47.992;8.820;2022-09-14T16:26:41;0.50;;;0.50;;
48042;SDS011;33988;47.992;8.820;2022-09-14T16:29:11;0.50;;;0.50;;
48042;SDS011;33988;47.992;8.820;2022-09-14T16:31:47;1.02;;;0.52;;
48042;SDS011;33988;47.992;8.820;2022-09-14T16:34:27;0.98;;;0.63;;
48042;SDS011;33988;47.992;8.820;2022-09-14T16:36:55;0.68;;;0.68;;
48042;SDS011;33988;47.992;8.820;2022-09-14T16:39:25;2.67;;;0.70;;
48042;SDS011;33988;47.992;8.820;2022-09-14T16:41:54;1.15;;;0.73;;
48042;SDS011;33988;47.992;8.820;2022-09-14T16:44:25;1.23;;;0.60;;
48042;SDS011;33988;47.992;8.820;2022-09-14T16:46:55;1.27;;;0.80;;
48042;SDS011;33988;47.992;8.820;2022-09-14T16:49:24;2.10;;;0.80;;
48042;SDS011;33988;47.992;8.820;2022-09-14T16:51:54;1.15;;;0.65;;
48042;SDS011;33988;47.992;8.820;2022-09-14T16:54:25;0.40;;;0.40;;
48042;SDS011;33988;47.992;8.820;2022-09-14T16:56:57;0.63;;;0.60;;
48042;SDS011;33988;47.992;8.820;2022-09-14T16:59:26;1.60;;;0.77;;
48042;SDS011;33988;47.992;8.820;2022-09-14T17:01:53;1.15;;;0.70;;
48042;SDS011;33988;47.992;8.820;2022-09-14T17:04:23;0.85;;;0.80;;
48042;SDS011;33988;47.992;8.820;2022-09-14T17:06:50;1.00;;;0.80;;
48042;SDS011;33988;47.992;8.820;2022-09-14T17:09:23;1.58;;;0.68;;
48042;SDS011;33988;47.992;8.820;2022-09-14T17:11:53;2.38;;;0.90;;
48042;SDS011;33988;47.992;8.820;2022-09-14T17:14:26;1.88;;;0.90;;
48042;SDS011;33988;47.992;8.820;2022-09-14T17:16:57;2.28;;;0.80;;
48042;SDS011;33988;47.992;8.820;2022-09-14T17:19:27;1.65;;;1.00;;
48042;SDS011;33988;47.992;8.820;2022-09-14T17:21:54;1.27;;;1.17;;
48042;SDS011;33988;47.992;8.820;2022-09-14T17:24:21;1.60;;;1.00;;
48042;SDS011;33988;47.992;8.820;2022-09-14T17:26:48;1.25;;;1.00;;
48042;SDS011;33988;47.992;8.820;2022-09-14T17:29:20;3.53;;;1.20;;
48042;SDS011;33988;47.992;8.820;2022-09-14T17:31:47;1.98;;;1.13;;
48042;SDS011;33988;47.992;8.820;2022-09-14T17:34:20;1.00;;;0.90;;
48042;SDS011;33988;47.992;8.820;2022-09-14T17:37:21;1.13;;;0.85;;
48042;SDS011;33988;47.992;8.820;2022-09-14T17:39:59;3.67;;;1.10;;
48042;SDS011;33988;47.992;8.820;2022-09-14T17:42:44;1.52;;;0.80;;
48042;SDS011;33988;47.992;8.820;2022-09-14T17:45:11;0.95;;;0.85;;
48042;SDS011;33988;47.992;8.820;2022-09-14T17:47:46;0.90;;;0.90;;
48042;SDS011;33988;47.992;8.820;2022-09-14T17:50:18;0.75;;;0.75;;
48042;SDS011;33988;47.992;8.820;2022-09-14T17:52:54;5.18;;;1.17;;
48042;SDS011;33988;47.992;8.820;2022-09-14T17:55:31;1.50;;;0.90;;
48042;SDS011;33988;47.992;8.820;2022-09-14T17:58:10;0.88;;;0.88;;
48042;SDS011;33988;47.992;8.820;2022-09-14T18:01:19;1.33;;;0.73;;
48042;SDS011;33988;47.992;8.820;2022-09-14T18:03:56;2.88;;;1.00;;
48042;SDS011;33988;47.992;8.820;2022-09-14T18:06:27;1.35;;;0.98;;
48042;SDS011;33988;47.992;8.820;2022-09-14T18:09:07;1.55;;;1.00;;
48042;SDS011;33988;47.992;8.820;2022-09-14T18:11:56;1.05;;;0.70;;
48042;SDS011;33988;47.992;8.820;2022-09-14T18:14:26;1.52;;;0.95;;
48042;SDS011;33988;47.992;8.820;2022-09-14T18:16:56;1.20;;;1.10;;
48042;SDS011;33988;47.992;8.820;2022-09-14T18:19:25;0.77;;;0.75;;